FLW weather

Flores Airport
Santa Cruz das Flores, Autonomous Region of Azores, Portugal

Public forecast

Using degrees Celsius for public forecast. Weather courtesy of forecast.io.

METAR (pilot weather report)

Retrieved 2019/08/17 17:30 UTC (0 seconds ago):

LPFL 171730Z 02012KT 350V050 9999 SCT030 SCT040 22/17 Q1022

TAF (pilot weather forecast)

Forecast is more than 12 hours old.

Closest forecast is Horta Airport, 125.9 nm (233.2 km) ESE. Retrieved 2018/09/06 09:00 UTC (12 months ago):

TAF LPHR 060800Z 0609/0618 12010KT 9999 SCT018 SCT040 PROB30 TEMPO 0609/0618 5000 SHRA BKN015 FEW018CB BECMG 0610/0612 18010KT